createdAt,value
2022-11-17T00:00:46.521Z,65.45
2022-11-17T00:03:15.616Z,64.96
2022-11-17T00:05:43.384Z,65.03
2022-11-17T00:08:10.156Z,65.02
2022-11-17T00:10:36.950Z,64.99
2022-11-17T00:13:29.622Z,65.39
2022-11-17T00:15:56.554Z,65.02
2022-11-17T00:18:41.780Z,65.14
2022-11-17T00:21:18.972Z,65.08
2022-11-17T00:23:48.655Z,65.06
2022-11-17T00:26:17.707Z,65.13
2022-11-17T00:28:44.687Z,64.87
2022-11-17T00:31:32.260Z,65.08
2022-11-17T00:34:05.761Z,65.10
2022-11-17T00:36:48.391Z,64.83
2022-11-17T00:39:17.518Z,65.05
2022-11-17T00:41:44.830Z,64.97
2022-11-17T00:44:12.125Z,64.90
2022-11-17T00:46:40.126Z,65.07
2022-11-17T00:49:08.718Z,64.77
2022-11-17T00:51:36.615Z,64.69
2022-11-17T00:54:05.138Z,64.86
2022-11-17T00:56:31.941Z,65.04
2022-11-17T00:58:58.813Z,64.78
2022-11-17T01:01:26.861Z,64.88
2022-11-17T01:04:03.101Z,64.70
2022-11-17T01:06:39.828Z,64.87
2022-11-17T01:09:11.939Z,64.73
2022-11-17T01:11:39.242Z,64.83
2022-11-17T01:14:05.999Z,64.74
2022-11-17T01:16:33.379Z,64.67
2022-11-17T01:19:02.828Z,64.36
2022-11-17T01:21:31.078Z,64.42
2022-11-17T01:24:00.571Z,64.64
2022-11-17T01:26:31.170Z,64.67
2022-11-17T01:28:59.699Z,64.72
2022-11-17T01:31:29.669Z,64.56
2022-11-17T01:33:57.042Z,64.59
2022-11-17T01:36:52.063Z,64.60
2022-11-17T01:39:19.149Z,64.42
2022-11-17T01:41:46.092Z,64.07
2022-11-17T01:44:53.026Z,64.68
2022-11-17T01:47:39.494Z,64.30
2022-11-17T01:50:39.338Z,64.54
2022-11-17T01:53:11.650Z,64.21
2022-11-17T01:55:44.448Z,64.39
2022-11-17T01:58:19.492Z,64.59
2022-11-17T02:00:47.031Z,64.40
2022-11-17T02:03:14.211Z,64.25
2022-11-17T02:05:55.762Z,64.20
2022-11-17T02:08:26.372Z,64.47
2022-11-17T02:10:53.916Z,64.48
2022-11-17T02:13:22.401Z,64.21
2022-11-17T02:15:49.192Z,64.30
2022-11-17T02:18:17.165Z,64.43
2022-11-17T02:21:24.380Z,64.17
2022-11-17T02:24:18.238Z,64.48
2022-11-17T02:27:26.299Z,64.53
2022-11-17T02:30:09.629Z,64.42
2022-11-17T02:33:07.311Z,64.48
2022-11-17T02:35:53.908Z,64.37
2022-11-17T02:38:28.856Z,64.36
2022-11-17T02:41:19.813Z,64.51
2022-11-17T02:44:03.887Z,64.55
2022-11-17T02:46:45.378Z,64.66
2022-11-17T02:49:27.577Z,64.33
2022-11-17T02:52:06.124Z,64.35
2022-11-17T02:54:33.825Z,64.45
2022-11-17T02:57:00.964Z,64.12
2022-11-17T02:59:49.882Z,63.86
2022-11-17T03:02:32.394Z,63.98
2022-11-17T03:05:11.101Z,64.16
2022-11-17T03:08:14.905Z,63.93
2022-11-17T03:10:57.628Z,64.22
2022-11-17T03:13:50.572Z,64.19
2022-11-17T03:16:55.000Z,64.25
2022-11-17T03:19:36.346Z,64.35
2022-11-17T03:22:22.821Z,64.04
2022-11-17T03:25:01.733Z,64.11
2022-11-17T03:27:37.688Z,64.25
2022-11-17T03:30:09.635Z,64.13
2022-11-17T03:32:43.460Z,63.92
2022-11-17T03:35:18.542Z,63.85
2022-11-17T03:37:52.180Z,64.18
2022-11-17T03:40:22.524Z,63.83
2022-11-17T03:42:55.463Z,64.16
2022-11-17T03:45:26.743Z,64.31
2022-11-17T03:48:08.802Z,64.30
2022-11-17T03:50:42.160Z,64.32
2022-11-17T03:53:09.050Z,64.09
2022-11-17T03:55:54.236Z,64.09
2022-11-17T03:58:26.828Z,64.30
2022-11-17T04:00:54.601Z,64.10
2022-11-17T04:03:22.934Z,64.34
2022-11-17T04:05:49.754Z,64.03
2022-11-17T04:08:16.855Z,64.09
2022-11-17T04:11:15.758Z,63.95
2022-11-17T04:14:00.932Z,63.90
2022-11-17T04:16:27.709Z,63.91
2022-11-17T04:18:57.552Z,63.99
2022-11-17T04:21:26.124Z,64.04
2022-11-17T04:23:52.924Z,64.06
2022-11-17T04:26:38.016Z,63.99
2022-11-17T04:29:04.810Z,63.87
2022-11-17T04:31:31.898Z,64.03
2022-11-17T04:34:05.560Z,63.97
2022-11-17T04:36:43.258Z,63.81
2022-11-17T04:39:14.301Z,63.94
2022-11-17T04:41:54.387Z,64.08
2022-11-17T04:44:26.730Z,63.64
2022-11-17T04:46:55.088Z,63.85
2022-11-17T04:49:23.825Z,63.94
2022-11-17T04:51:52.155Z,63.73
2022-11-17T04:54:23.996Z,63.59
2022-11-17T04:56:51.685Z,63.65
2022-11-17T04:59:18.608Z,63.85
2022-11-17T05:01:46.274Z,63.63
2022-11-17T05:04:35.970Z,63.78
2022-11-17T05:07:03.237Z,63.58
2022-11-17T05:09:30.069Z,63.61
2022-11-17T05:12:15.212Z,63.60
2022-11-17T05:14:41.990Z,64.09
2022-11-17T05:17:11.220Z,63.73
2022-11-17T05:19:46.177Z,63.90
2022-11-17T05:22:39.104Z,64.01
2022-11-17T05:25:06.408Z,63.90
2022-11-17T05:27:34.004Z,63.66
2022-11-17T05:30:05.770Z,63.67
2022-11-17T05:32:32.621Z,63.72
2022-11-17T05:34:59.422Z,63.93
2022-11-17T05:37:26.278Z,63.74
2022-11-17T05:39:53.104Z,63.80
2022-11-17T05:42:20.086Z,63.79
2022-11-17T05:44:48.381Z,63.86
2022-11-17T05:47:15.433Z,63.51
2022-11-17T05:49:42.209Z,63.99
2022-11-17T05:52:09.474Z,63.54
2022-11-17T05:54:36.257Z,63.90
2022-11-17T05:57:08.547Z,63.71
2022-11-17T05:59:50.861Z,63.52
2022-11-17T06:02:45.592Z,63.84
2022-11-17T06:05:17.076Z,63.72
2022-11-17T06:07:46.939Z,63.97
2022-11-17T06:10:13.696Z,64.06
2022-11-17T06:12:40.461Z,63.83
2022-11-17T06:15:07.707Z,63.83
2022-11-17T06:18:10.411Z,63.68
2022-11-17T06:20:45.090Z,63.95
2022-11-17T06:23:12.305Z,63.53
2022-11-17T06:25:39.942Z,63.96
2022-11-17T06:28:13.116Z,63.82
2022-11-17T06:30:40.871Z,63.77
2022-11-17T06:33:10.835Z,63.56
2022-11-17T06:35:38.653Z,63.60
2022-11-17T06:38:05.472Z,64.01
2022-11-17T06:40:32.477Z,63.67
2022-11-17T06:43:09.463Z,63.82
2022-11-17T06:45:39.754Z,63.84
2022-11-17T06:48:07.897Z,64.02
2022-11-17T06:50:35.258Z,63.92
2022-11-17T06:53:06.017Z,64.11
2022-11-17T06:55:34.474Z,64.38
2022-11-17T06:58:08.063Z,64.22
2022-11-17T07:00:38.599Z,64.40
2022-11-17T07:03:09.099Z,64.20
2022-11-17T07:05:39.981Z,64.67
2022-11-17T07:08:08.497Z,64.62
2022-11-17T07:10:36.502Z,64.57
2022-11-17T07:13:03.413Z,64.57
2022-11-17T07:15:30.499Z,64.57
2022-11-17T07:17:58.494Z,64.71
2022-11-17T07:20:25.296Z,64.74
2022-11-17T07:22:52.337Z,65.15
2022-11-17T07:25:22.443Z,64.83
2022-11-17T07:27:49.436Z,64.88
2022-11-17T07:30:16.413Z,64.84
2022-11-17T07:32:43.221Z,65.22
2022-11-17T07:35:10.035Z,64.97
2022-11-17T07:37:36.817Z,65.38
2022-11-17T07:40:03.993Z,65.24
2022-11-17T07:42:31.816Z,65.31
2022-11-17T07:44:58.584Z,65.34
2022-11-17T07:47:25.348Z,65.49
2022-11-17T07:49:52.150Z,65.68
2022-11-17T07:52:18.954Z,65.29
2022-11-17T07:54:45.725Z,65.61
2022-11-17T07:57:12.661Z,65.38
2022-11-17T07:59:39.444Z,65.78
2022-11-17T08:02:06.436Z,65.69
2022-11-17T08:04:33.216Z,65.67
2022-11-17T08:07:00.069Z,66.01
2022-11-17T08:09:26.919Z,66.23
2022-11-17T08:11:53.814Z,65.89
2022-11-17T08:14:20.616Z,66.38
2022-11-17T08:16:50.041Z,66.07
2022-11-17T08:19:16.889Z,66.15
2022-11-17T08:21:43.684Z,66.37
2022-11-17T08:24:12.386Z,66.25
2022-11-17T08:26:39.178Z,66.45
2022-11-17T08:29:06.032Z,66.35
2022-11-17T08:31:33.201Z,66.33
2022-11-17T08:33:59.981Z,66.48
2022-11-17T08:36:26.838Z,66.48
2022-11-17T08:38:53.741Z,66.73
2022-11-17T08:41:21.652Z,66.54
2022-11-17T08:43:50.100Z,66.68
2022-11-17T08:46:16.860Z,66.74
2022-11-17T08:48:43.657Z,66.67
2022-11-17T08:51:12.845Z,67.01
2022-11-17T08:53:39.727Z,67.14
2022-11-17T08:56:08.351Z,67.21
2022-11-17T08:58:45.460Z,66.96
2022-11-17T09:01:15.814Z,67.07
2022-11-17T09:03:45.353Z,67.13
2022-11-17T09:06:13.775Z,67.18
2022-11-17T09:08:47.920Z,67.43
2022-11-17T09:11:16.375Z,67.00
2022-11-17T09:13:43.432Z,66.92
2022-11-17T09:16:12.125Z,67.17
2022-11-17T09:18:40.810Z,67.12
2022-11-17T09:21:11.874Z,67.22
2022-11-17T09:23:39.256Z,67.21
2022-11-17T09:26:12.964Z,67.37
2022-11-17T09:28:40.558Z,67.32
2022-11-17T09:31:18.049Z,67.25
2022-11-17T09:33:45.857Z,67.54
2022-11-17T09:36:15.414Z,67.32
2022-11-17T09:38:42.487Z,67.33
2022-11-17T09:41:32.400Z,67.55
2022-11-17T09:44:17.196Z,67.72
2022-11-17T09:47:02.811Z,67.41
2022-11-17T09:49:58.957Z,67.31
2022-11-17T09:52:54.743Z,67.60
2022-11-17T09:55:34.324Z,67.63
2022-11-17T09:58:15.332Z,67.63
2022-11-17T10:00:48.707Z,67.38
2022-11-17T10:03:41.821Z,67.71
2022-11-17T10:06:22.369Z,67.77
2022-11-17T10:08:58.287Z,67.77
2022-11-17T10:11:34.034Z,67.79
2022-11-17T10:14:14.944Z,68.00
2022-11-17T10:16:58.115Z,67.89
2022-11-17T10:19:31.184Z,67.79
2022-11-17T10:22:04.182Z,68.11
2022-11-17T10:24:44.137Z,67.80
2022-11-17T10:27:19.944Z,67.85
2022-11-17T10:30:07.705Z,68.25
2022-11-17T10:32:48.649Z,68.17
2022-11-17T10:35:19.548Z,67.92
2022-11-17T10:38:12.879Z,68.33
2022-11-17T10:40:51.093Z,68.37
2022-11-17T10:43:37.693Z,68.31
2022-11-17T10:46:13.441Z,68.26
2022-11-17T10:49:04.950Z,68.05
2022-11-17T10:51:34.329Z,68.33
2022-11-17T10:54:17.913Z,68.43
2022-11-17T10:56:52.201Z,68.30
2022-11-17T10:59:29.496Z,68.62
2022-11-17T11:01:56.374Z,68.38
2022-11-17T11:04:36.656Z,68.63
2022-11-17T11:07:20.677Z,68.34
2022-11-17T11:10:18.945Z,68.53
2022-11-17T11:13:08.084Z,68.45
2022-11-17T11:15:36.547Z,68.87
2022-11-17T11:18:14.020Z,68.47
2022-11-17T11:21:25.824Z,68.52
2022-11-17T11:24:20.933Z,68.77
2022-11-17T11:27:04.659Z,68.66
2022-11-17T11:30:04.213Z,68.61
2022-11-17T11:33:14.301Z,68.92
2022-11-17T11:36:02.921Z,68.67
2022-11-17T11:38:51.797Z,68.66
2022-11-17T11:41:30.358Z,68.71
2022-11-17T11:44:24.265Z,68.87
2022-11-17T11:47:33.339Z,68.92
2022-11-17T11:50:23.938Z,68.71
2022-11-17T11:52:59.603Z,68.74
2022-11-17T11:55:36.000Z,69.04
2022-11-17T11:58:25.618Z,68.87
2022-11-17T12:01:03.234Z,68.59
2022-11-17T12:03:48.543Z,68.98
2022-11-17T12:06:42.315Z,68.89
2022-11-17T12:09:33.456Z,68.76
2022-11-17T12:12:01.859Z,68.90
2022-11-17T12:14:31.392Z,68.70
2022-11-17T12:17:23.385Z,68.92
2022-11-17T12:20:20.813Z,68.83
2022-11-17T12:23:05.279Z,69.20
2022-11-17T12:25:36.031Z,68.84
2022-11-17T12:28:40.608Z,68.79
2022-11-17T12:31:13.187Z,68.87
2022-11-17T12:33:51.776Z,68.71
2022-11-17T12:36:30.152Z,68.86
2022-11-17T12:39:00.670Z,69.06
2022-11-17T12:41:49.305Z,68.88
2022-11-17T12:44:37.792Z,68.82
2022-11-17T12:47:18.395Z,69.06
2022-11-17T12:50:09.590Z,69.07
2022-11-17T12:53:08.315Z,69.19
2022-11-17T12:55:35.007Z,69.39
2022-11-17T12:58:26.436Z,69.15
2022-11-17T13:01:23.976Z,69.01
2022-11-17T13:04:17.704Z,68.91
2022-11-17T13:07:06.231Z,69.29
2022-11-17T13:09:36.448Z,69.58
2022-11-17T13:12:10.101Z,68.94
2022-11-17T13:14:59.245Z,69.34
2022-11-17T13:17:42.466Z,69.20
2022-11-17T13:20:26.872Z,68.99
2022-11-17T13:23:02.782Z,69.03
2022-11-17T13:25:29.537Z,69.30
2022-11-17T13:28:03.049Z,69.24
2022-11-17T13:30:33.496Z,69.02
2022-11-17T13:33:03.577Z,68.99
2022-11-17T13:35:34.180Z,68.94
2022-11-17T13:38:23.070Z,69.12
2022-11-17T13:40:52.567Z,69.34
2022-11-17T13:43:25.325Z,69.12
2022-11-17T13:45:54.557Z,69.27
2022-11-17T13:48:40.205Z,69.20
2022-11-17T13:51:33.236Z,69.00
2022-11-17T13:54:03.008Z,69.28
2022-11-17T13:56:38.506Z,69.17
2022-11-17T13:59:32.950Z,69.09
2022-11-17T14:02:20.736Z,69.17
2022-11-17T14:05:09.448Z,69.19
2022-11-17T14:07:38.881Z,69.40
2022-11-17T14:10:21.158Z,69.44
2022-11-17T14:13:00.837Z,69.26
2022-11-17T14:15:41.935Z,69.30
2022-11-17T14:18:38.120Z,69.43
2022-11-17T14:21:11.459Z,69.43
2022-11-17T14:23:38.978Z,69.34
2022-11-17T14:26:06.578Z,69.17
2022-11-17T14:28:33.610Z,69.19
2022-11-17T14:31:00.430Z,69.40
2022-11-17T14:33:27.220Z,69.23
2022-11-17T14:35:59.229Z,69.53
2022-11-17T14:38:26.281Z,69.40
2022-11-17T14:40:53.531Z,69.09
2022-11-17T14:43:22.578Z,69.40
2022-11-17T14:45:50.487Z,69.35
2022-11-17T14:48:19.308Z,69.19
2022-11-17T14:50:47.451Z,69.25
2022-11-17T14:53:14.445Z,69.22
2022-11-17T14:55:41.247Z,69.24
2022-11-17T14:58:09.775Z,69.00
2022-11-17T15:00:36.773Z,69.29
2022-11-17T15:03:03.683Z,69.03
2022-11-17T15:05:30.489Z,69.22
2022-11-17T15:07:57.275Z,68.82
2022-11-17T15:10:24.684Z,69.21
2022-11-17T15:12:51.603Z,69.25
2022-11-17T15:15:18.520Z,69.23
2022-11-17T15:17:45.343Z,69.05
2022-11-17T15:20:12.374Z,69.06
2022-11-17T15:22:39.290Z,69.12
2022-11-17T15:25:06.898Z,69.36
2022-11-17T15:27:33.653Z,69.04
2022-11-17T15:30:00.435Z,69.13
2022-11-17T15:32:27.214Z,69.19
2022-11-17T15:34:54.031Z,69.22
2022-11-17T15:37:21.269Z,69.28
2022-11-17T15:39:48.036Z,69.21
2022-11-17T15:42:14.865Z,69.08
2022-11-17T15:44:41.703Z,68.99
2022-11-17T15:47:08.480Z,69.38
2022-11-17T15:49:35.260Z,69.23
2022-11-17T15:52:02.217Z,69.34
2022-11-17T15:54:29.174Z,69.34
2022-11-17T15:56:55.987Z,69.36
2022-11-17T15:59:22.950Z,69.25
2022-11-17T16:01:52.187Z,69.17
2022-11-17T16:04:19.136Z,69.19
2022-11-17T16:06:47.009Z,69.40
2022-11-17T16:09:16.153Z,69.45
2022-11-17T16:11:43.413Z,69.28
2022-11-17T16:14:10.534Z,69.23
2022-11-17T16:16:39.150Z,69.34
2022-11-17T16:19:06.628Z,69.28
2022-11-17T16:21:33.732Z,69.00
2022-11-17T16:24:03.267Z,69.27
2022-11-17T16:26:31.017Z,69.23
2022-11-17T16:29:06.490Z,69.28
2022-11-17T16:31:35.823Z,69.16
2022-11-17T16:34:11.882Z,69.03
2022-11-17T16:36:40.818Z,69.11
2022-11-17T16:39:11.733Z,69.18
2022-11-17T16:41:45.398Z,69.29
2022-11-17T16:44:15.186Z,69.13
2022-11-17T16:46:45.013Z,69.48
2022-11-17T16:49:15.163Z,69.06
2022-11-17T16:51:49.102Z,69.07
2022-11-17T16:54:16.262Z,69.19
2022-11-17T16:56:43.079Z,69.54
2022-11-17T16:59:11.239Z,69.35
2022-11-17T17:01:38.596Z,69.46
2022-11-17T17:04:08.856Z,69.35
2022-11-17T17:06:39.683Z,69.03
2022-11-17T17:09:08.374Z,69.62
2022-11-17T17:11:36.642Z,69.20
2022-11-17T17:14:06.273Z,69.44
2022-11-17T17:16:35.706Z,69.50
2022-11-17T17:19:06.015Z,69.47
2022-11-17T17:21:33.647Z,69.36
2022-11-17T17:24:00.974Z,69.37
2022-11-17T17:26:30.677Z,69.06
2022-11-17T17:29:00.589Z,69.33
2022-11-17T17:31:35.101Z,69.05
2022-11-17T17:34:02.210Z,69.17
2022-11-17T17:36:29.258Z,69.46
2022-11-17T17:38:59.221Z,69.12
2022-11-17T17:41:29.161Z,69.32
2022-11-17T17:44:02.177Z,69.23
2022-11-17T17:46:31.174Z,69.31
2022-11-17T17:48:58.527Z,69.53
2022-11-17T17:51:27.912Z,69.13
2022-11-17T17:53:57.931Z,69.47
2022-11-17T17:56:26.148Z,69.24
2022-11-17T17:58:56.852Z,69.19
2022-11-17T18:01:29.220Z,69.41
2022-11-17T18:04:04.566Z,69.59
2022-11-17T18:06:40.575Z,69.32
2022-11-17T18:09:10.540Z,69.27
2022-11-17T18:11:37.559Z,69.83
2022-11-17T18:14:04.558Z,69.74
2022-11-17T18:16:33.661Z,69.43
2022-11-17T18:19:03.797Z,69.70
2022-11-17T18:21:31.385Z,69.42
2022-11-17T18:24:01.122Z,69.68
2022-11-17T18:26:37.822Z,69.55
2022-11-17T18:29:08.141Z,69.47
2022-11-17T18:31:36.838Z,69.70
2022-11-17T18:34:07.513Z,69.61
2022-11-17T18:36:35.545Z,69.75
2022-11-17T18:39:03.461Z,69.43
2022-11-17T18:41:32.106Z,69.67
2022-11-17T18:43:58.928Z,69.29
2022-11-17T18:46:29.949Z,69.58
2022-11-17T18:48:57.215Z,69.66
2022-11-17T18:51:27.404Z,69.27
2022-11-17T18:53:57.364Z,69.34
2022-11-17T18:56:35.988Z,69.23
2022-11-17T18:59:11.070Z,69.50
2022-11-17T19:01:42.846Z,69.38
2022-11-17T19:04:11.913Z,69.40
2022-11-17T19:06:38.711Z,69.42
2022-11-17T19:09:06.011Z,69.39
2022-11-17T19:11:33.896Z,69.62
2022-11-17T19:14:05.331Z,69.48
2022-11-17T19:16:32.887Z,69.72
2022-11-17T19:19:00.066Z,69.58
2022-11-17T19:21:29.963Z,69.41
2022-11-17T19:24:04.375Z,69.48
2022-11-17T19:26:34.127Z,69.59
2022-11-17T19:29:04.478Z,69.47
2022-11-17T19:31:32.012Z,69.48
2022-11-17T19:33:59.321Z,69.62
2022-11-17T19:36:32.489Z,69.74
2022-11-17T19:39:01.439Z,69.91
2022-11-17T19:41:34.615Z,69.24
2022-11-17T19:44:05.423Z,69.41
2022-11-17T19:46:33.443Z,69.65
2022-11-17T19:49:00.572Z,69.70
2022-11-17T19:51:30.545Z,69.40
2022-11-17T19:54:01.210Z,69.65
2022-11-17T19:56:28.431Z,69.79
2022-11-17T19:58:55.556Z,69.49
2022-11-17T20:01:25.934Z,69.65
2022-11-17T20:03:53.716Z,69.25
2022-11-17T20:06:23.930Z,69.46
2022-11-17T20:08:50.830Z,69.46
2022-11-17T20:11:24.220Z,69.59
2022-11-17T20:13:51.274Z,69.69
2022-11-17T20:16:21.835Z,69.56
2022-11-17T20:18:51.219Z,69.56
2022-11-17T20:21:18.795Z,69.17
2022-11-17T20:23:46.272Z,69.59
2022-11-17T20:26:17.667Z,69.28
2022-11-17T20:28:44.815Z,69.14
2022-11-17T20:31:15.009Z,69.44
2022-11-17T20:33:43.098Z,69.27
2022-11-17T20:36:15.243Z,69.42
2022-11-17T20:38:42.141Z,69.44
2022-11-17T20:41:09.191Z,69.33
2022-11-17T20:43:36.597Z,69.15
2022-11-17T20:46:04.121Z,69.41
2022-11-17T20:48:33.814Z,69.29
2022-11-17T20:51:07.780Z,69.64
2022-11-17T20:53:35.284Z,69.28
2022-11-17T20:56:05.023Z,69.35
2022-11-17T20:58:32.228Z,69.21
2022-11-17T21:00:59.537Z,69.27
2022-11-17T21:03:27.435Z,69.48
2022-11-17T21:06:00.104Z,69.06
2022-11-17T21:08:30.962Z,69.45
2022-11-17T21:11:06.211Z,69.52
2022-11-17T21:13:35.238Z,69.65
2022-11-17T21:16:06.475Z,69.34
2022-11-17T21:18:34.669Z,69.41
2022-11-17T21:21:04.414Z,69.42
2022-11-17T21:23:31.422Z,69.21
2022-11-17T21:25:58.429Z,69.34
2022-11-17T21:28:25.214Z,69.33
2022-11-17T21:30:52.000Z,69.17
2022-11-17T21:33:18.753Z,69.33
2022-11-17T21:35:45.557Z,69.25
2022-11-17T21:38:13.808Z,69.14
2022-11-17T21:40:40.613Z,69.36
2022-11-17T21:43:07.432Z,69.44
2022-11-17T21:45:34.293Z,69.23
2022-11-17T21:48:01.143Z,69.08
2022-11-17T21:50:27.923Z,69.38
2022-11-17T21:52:54.672Z,69.35
2022-11-17T21:55:21.540Z,69.04
2022-11-17T21:57:50.889Z,69.14
2022-11-17T22:00:18.153Z,69.34
2022-11-17T22:02:44.950Z,69.30
2022-11-17T22:05:11.704Z,69.22
2022-11-17T22:07:38.581Z,69.29
2022-11-17T22:10:05.995Z,69.48
2022-11-17T22:12:32.770Z,68.87
2022-11-17T22:14:59.864Z,69.05
2022-11-17T22:17:26.640Z,68.96
2022-11-17T22:19:53.421Z,69.30
2022-11-17T22:22:20.256Z,68.97
2022-11-17T22:24:49.718Z,69.22
2022-11-17T22:27:17.180Z,69.14
2022-11-17T22:29:44.054Z,68.72
2022-11-17T22:32:10.967Z,69.17
2022-11-17T22:34:37.766Z,69.08
2022-11-17T22:37:04.670Z,69.18
2022-11-17T22:39:31.468Z,69.39
2022-11-17T22:41:58.222Z,69.19
2022-11-17T22:44:25.006Z,69.21
2022-11-17T22:46:51.797Z,69.37
2022-11-17T22:49:18.849Z,69.22
2022-11-17T22:52:03.504Z,69.23
2022-11-17T22:54:30.673Z,69.22
2022-11-17T22:56:58.513Z,69.22
2022-11-17T22:59:29.949Z,69.18
2022-11-17T23:01:57.113Z,69.58
2022-11-17T23:04:24.065Z,69.51
2022-11-17T23:06:51.030Z,69.07
2022-11-17T23:09:18.355Z,69.45
2022-11-17T23:11:45.511Z,69.19
2022-11-17T23:14:14.765Z,69.25
2022-11-17T23:16:42.488Z,69.32
2022-11-17T23:19:13.750Z,69.20
2022-11-17T23:21:41.349Z,69.36
2022-11-17T23:24:10.282Z,69.36
2022-11-17T23:26:37.041Z,69.21
2022-11-17T23:29:03.831Z,69.52
2022-11-17T23:31:30.594Z,69.56
2022-11-17T23:33:57.409Z,69.24
2022-11-17T23:36:24.830Z,69.30
2022-11-17T23:38:52.155Z,69.04
2022-11-17T23:41:22.318Z,69.49
2022-11-17T23:43:53.942Z,69.49
2022-11-17T23:46:25.120Z,69.17
2022-11-17T23:48:52.354Z,69.12
2022-11-17T23:51:22.255Z,69.39
2022-11-17T23:53:49.559Z,69.01
2022-11-17T23:56:17.121Z,69.18
2022-11-17T23:58:44.080Z,69.34
